createdAt,value
2022-10-29T00:00:20.883Z,100.00
2022-10-29T00:02:48.385Z,100.00
2022-10-29T00:05:16.132Z,100.00
2022-10-29T00:07:43.683Z,100.00
2022-10-29T00:10:11.234Z,100.00
2022-10-29T00:12:39.040Z,100.00
2022-10-29T00:15:07.607Z,100.00
2022-10-29T00:20:22.120Z,100.00
2022-10-29T00:22:53.224Z,100.00
2022-10-29T00:25:21.559Z,100.00
2022-10-29T00:27:50.575Z,100.00
2022-10-29T00:30:18.901Z,100.00
2022-10-29T00:32:47.333Z,100.00
2022-10-29T00:35:15.348Z,100.00
2022-10-29T00:37:43.143Z,100.00
2022-10-29T00:40:11.896Z,100.00
2022-10-29T00:42:40.340Z,100.00
2022-10-29T00:45:19.480Z,100.00
2022-10-29T00:48:07.328Z,100.00
2022-10-29T00:50:35.593Z,100.00
2022-10-29T00:53:03.274Z,100.00
2022-10-29T00:55:32.248Z,100.00
2022-10-29T00:58:01.052Z,100.00
2022-10-29T01:00:28.730Z,100.00
2022-10-29T01:02:56.519Z,100.00
2022-10-29T01:05:26.153Z,100.00
2022-10-29T01:07:54.493Z,100.00
2022-10-29T01:10:40.816Z,100.00
2022-10-29T01:13:38.200Z,100.00
2022-10-29T01:16:08.524Z,100.00
2022-10-29T01:19:02.705Z,100.00
2022-10-29T01:21:42.883Z,100.00
2022-10-29T01:24:35.400Z,100.00
2022-10-29T01:27:40.001Z,100.00
2022-10-29T01:33:17.012Z,100.00
2022-10-29T01:35:54.938Z,100.00
2022-10-29T01:38:31.321Z,100.00
2022-10-29T01:41:29.776Z,100.00
2022-10-29T01:44:22.769Z,100.00
2022-10-29T01:46:56.385Z,100.00
2022-10-29T01:49:38.830Z,100.00
2022-10-29T01:52:09.201Z,100.00
2022-10-29T01:54:41.173Z,100.00
2022-10-29T01:57:33.327Z,100.00
2022-10-29T02:00:13.800Z,100.00
2022-10-29T02:03:01.476Z,100.00
2022-10-29T02:05:57.710Z,100.00
2022-10-29T02:11:53.046Z,100.00
2022-10-29T02:14:30.574Z,100.00
2022-10-29T02:16:59.574Z,100.00
2022-10-29T02:22:17.101Z,100.00
2022-10-29T02:27:29.821Z,100.00
2022-10-29T02:29:57.758Z,100.00
2022-10-29T02:32:25.647Z,100.00
2022-10-29T02:34:53.579Z,100.00
2022-10-29T02:37:21.664Z,100.00
2022-10-29T02:39:51.290Z,100.00
2022-10-29T02:42:19.213Z,100.00
2022-10-29T02:44:46.768Z,100.00
2022-10-29T02:50:00.244Z,100.00
2022-10-29T02:52:27.978Z,100.00
2022-10-29T02:54:56.098Z,100.00
2022-10-29T02:57:23.771Z,100.00
2022-10-29T03:02:36.715Z,100.00
2022-10-29T03:07:50.579Z,100.00
2022-10-29T03:10:19.513Z,100.00
2022-10-29T03:12:49.076Z,100.00
2022-10-29T03:18:03.212Z,100.00
2022-10-29T03:23:16.580Z,100.00
2022-10-29T03:25:44.280Z,100.00
2022-10-29T03:28:12.079Z,100.00
2022-10-29T03:30:40.424Z,100.00
2022-10-29T03:33:08.660Z,100.00
2022-10-29T03:35:36.331Z,100.00
2022-10-29T03:40:48.743Z,100.00
2022-10-29T03:43:16.842Z,100.00
2022-10-29T03:45:44.682Z,100.00
2022-10-29T03:53:45.196Z,100.00
2022-10-29T03:56:12.702Z,100.00
2022-10-29T03:58:40.415Z,100.00
2022-10-29T04:01:10.171Z,100.00
2022-10-29T04:03:42.535Z,100.00
2022-10-29T04:06:12.875Z,100.00
2022-10-29T04:08:44.257Z,100.00
2022-10-29T04:11:15.082Z,100.00
2022-10-29T04:13:42.574Z,100.00
2022-10-29T04:16:11.252Z,100.00
2022-10-29T04:18:39.262Z,100.00
2022-10-29T04:29:31.801Z,100.00
2022-10-29T04:32:00.854Z,100.00
2022-10-29T04:34:28.487Z,100.00
2022-10-29T04:36:56.479Z,100.00
2022-10-29T04:39:24.400Z,100.00
2022-10-29T04:41:52.072Z,100.00
2022-10-29T04:44:20.282Z,100.00
2022-10-29T04:46:48.057Z,100.00
2022-10-29T04:49:15.668Z,100.00
2022-10-29T04:54:28.575Z,100.00
2022-10-29T04:56:56.325Z,100.00
2022-10-29T04:59:24.117Z,100.00
2022-10-29T05:01:53.812Z,100.00
2022-10-29T05:04:22.220Z,100.00
2022-10-29T05:06:50.004Z,100.00
2022-10-29T05:12:03.810Z,100.00
2022-10-29T05:14:31.564Z,100.00
2022-10-29T05:17:02.889Z,100.00
2022-10-29T05:19:31.076Z,100.00
2022-10-29T05:22:04.458Z,100.00
2022-10-29T05:24:32.520Z,100.00
2022-10-29T05:27:02.365Z,100.00
2022-10-29T05:29:30.123Z,100.00
2022-10-29T05:31:58.046Z,100.00
2022-10-29T05:34:26.172Z,100.00
2022-10-29T05:36:54.333Z,100.00
2022-10-29T05:39:24.406Z,100.00
2022-10-29T05:41:52.188Z,100.00
2022-10-29T05:44:19.935Z,100.00
2022-10-29T05:46:50.722Z,100.00
2022-10-29T05:49:18.492Z,100.00
2022-10-29T05:51:47.312Z,100.00
2022-10-29T05:54:15.575Z,100.00
2022-10-29T05:56:43.091Z,100.00
2022-10-29T06:01:59.558Z,100.00
2022-10-29T06:04:28.805Z,100.00
2022-10-29T06:06:57.373Z,100.00
2022-10-29T06:09:25.299Z,100.00
2022-10-29T06:11:55.638Z,100.00
2022-10-29T06:14:28.349Z,100.00
2022-10-29T06:16:58.051Z,100.00
2022-10-29T06:19:26.372Z,100.00
2022-10-29T06:22:00.306Z,100.00
2022-10-29T06:24:29.389Z,100.00
2022-10-29T06:26:58.086Z,100.00
2022-10-29T06:34:58.760Z,100.00
2022-10-29T06:37:27.583Z,100.00
2022-10-29T06:39:55.680Z,100.00
2022-10-29T06:42:23.333Z,100.00
2022-10-29T06:44:51.445Z,100.00
2022-10-29T06:47:21.711Z,100.00
2022-10-29T06:49:49.627Z,100.00
2022-10-29T06:52:18.547Z,100.00
2022-10-29T07:03:05.588Z,100.00
2022-10-29T07:05:34.586Z,100.00
2022-10-29T07:08:02.628Z,100.00
2022-10-29T07:10:33.974Z,100.00
2022-10-29T07:13:02.004Z,100.00
2022-10-29T07:15:31.326Z,100.00
2022-10-29T07:18:08.417Z,100.00
2022-10-29T07:20:42.357Z,100.00
2022-10-29T07:23:12.191Z,100.00
2022-10-29T07:25:41.539Z,100.00
2022-10-29T07:31:03.867Z,100.00
2022-10-29T07:33:32.232Z,100.00
2022-10-29T07:36:00.880Z,100.00
2022-10-29T07:38:28.792Z,100.00
2022-10-29T07:40:56.476Z,100.00
2022-10-29T07:46:10.040Z,100.00
2022-10-29T07:48:39.216Z,100.00
2022-10-29T07:51:08.063Z,100.00
2022-10-29T07:53:35.724Z,100.00
2022-10-29T07:56:03.359Z,100.00
2022-10-29T08:06:47.638Z,100.00
2022-10-29T08:09:16.157Z,100.00
2022-10-29T08:19:49.095Z,100.00
2022-10-29T08:22:16.751Z,100.00
2022-10-29T08:24:45.023Z,100.00
2022-10-29T08:27:14.655Z,100.00
2022-10-29T08:29:42.760Z,100.00
2022-10-29T08:32:11.599Z,100.00
2022-10-29T08:34:41.506Z,100.00
2022-10-29T08:37:10.285Z,100.00
2022-10-29T08:39:38.999Z,100.00
2022-10-29T08:42:33.669Z,100.00
2022-10-29T08:45:11.336Z,100.00
2022-10-29T08:48:35.864Z,100.00
2022-10-29T08:54:32.104Z,100.00
2022-10-29T08:57:08.960Z,100.00
2022-10-29T09:05:21.128Z,100.00
2022-10-29T09:08:35.905Z,100.00
2022-10-29T09:11:15.438Z,100.00
2022-10-29T09:13:56.186Z,100.00
2022-10-29T09:23:10.017Z,100.00
2022-10-29T09:25:50.838Z,100.00
2022-10-29T09:28:42.087Z,100.00
2022-10-29T09:37:00.054Z,100.00
2022-10-29T09:39:34.536Z,100.00
2022-10-29T09:42:09.069Z,100.00
2022-10-29T09:44:59.174Z,100.00
2022-10-29T09:53:28.346Z,100.00
2022-10-29T09:55:56.846Z,100.00
2022-10-29T09:58:28.543Z,100.00
2022-10-29T10:00:57.461Z,100.00
2022-10-29T10:03:45.979Z,100.00
2022-10-29T10:06:16.157Z,100.00
2022-10-29T10:09:04.870Z,100.00
2022-10-29T10:11:49.551Z,100.00
2022-10-29T10:14:22.271Z,100.00
2022-10-29T10:19:49.023Z,100.00
2022-10-29T10:22:25.665Z,100.00
2022-10-29T10:24:55.010Z,100.00
2022-10-29T10:27:32.862Z,100.00
2022-10-29T10:30:05.372Z,100.00
2022-10-29T10:32:33.791Z,100.00
2022-10-29T10:35:02.736Z,100.00
2022-10-29T10:37:34.275Z,100.00
2022-10-29T10:40:06.302Z,100.00
2022-10-29T10:42:42.996Z,100.00
2022-10-29T10:50:33.130Z,100.00
2022-10-29T10:53:17.698Z,100.00
2022-10-29T10:55:52.892Z,100.00
2022-10-29T11:01:53.096Z,100.00
2022-10-29T11:04:30.826Z,100.00
2022-10-29T11:07:05.662Z,100.00
2022-10-29T11:09:49.405Z,100.00
2022-10-29T11:12:44.513Z,100.00
2022-10-29T11:15:22.307Z,100.00
2022-10-29T11:18:02.661Z,100.00
2022-10-29T11:24:09.860Z,97.73
2022-10-29T11:29:55.253Z,99.53
2022-10-29T11:32:46.916Z,100.00
2022-10-29T11:38:23.902Z,99.64
2022-10-29T11:41:08.094Z,98.75
2022-10-29T11:43:37.408Z,98.72
2022-10-29T11:46:32.041Z,99.08
2022-10-29T11:49:25.681Z,100.00
2022-10-29T11:52:20.708Z,99.51
2022-10-29T11:55:10.584Z,99.47
2022-10-29T11:57:58.771Z,98.41
2022-10-29T12:00:32.737Z,99.00
2022-10-29T12:03:20.079Z,99.12
2022-10-29T12:06:03.835Z,97.53
2022-10-29T12:08:35.491Z,96.57
2022-10-29T12:11:32.377Z,94.38
2022-10-29T12:23:50.050Z,94.28
2022-10-29T12:29:29.788Z,92.96
2022-10-29T12:32:26.873Z,90.91
2022-10-29T12:35:40.010Z,90.59
2022-10-29T12:38:31.298Z,90.71
2022-10-29T12:41:10.454Z,89.82
2022-10-29T12:43:40.510Z,90.98
2022-10-29T12:46:20.743Z,89.72
2022-10-29T12:49:26.349Z,89.75
2022-10-29T12:52:04.320Z,90.70
2022-10-29T12:54:43.256Z,88.83
2022-10-29T12:57:14.608Z,87.58
2022-10-29T12:59:44.196Z,85.71
2022-10-29T13:02:29.020Z,84.58
2022-10-29T13:05:14.327Z,82.53
2022-10-29T13:07:48.172Z,83.48
2022-10-29T13:10:22.252Z,84.38
2022-10-29T13:13:01.540Z,84.92
2022-10-29T13:18:38.981Z,89.08
2022-10-29T13:21:11.821Z,92.43
2022-10-29T13:23:43.640Z,91.74
2022-10-29T13:26:12.483Z,91.12
2022-10-29T13:28:40.445Z,92.12
2022-10-29T13:31:08.847Z,91.96
2022-10-29T13:33:36.768Z,93.13
2022-10-29T13:39:20.925Z,94.27
2022-10-29T13:41:53.188Z,94.97
2022-10-29T13:44:24.201Z,96.35
2022-10-29T13:49:44.595Z,95.97
2022-10-29T13:52:15.481Z,96.39
2022-10-29T13:55:07.812Z,96.20
2022-10-29T13:58:06.603Z,95.80
2022-10-29T14:00:38.693Z,97.33
2022-10-29T14:09:52.117Z,98.17
2022-10-29T14:12:26.434Z,98.81
2022-10-29T14:17:53.848Z,98.38
2022-10-29T14:23:16.171Z,98.82
2022-10-29T14:25:51.939Z,98.83
2022-10-29T14:28:27.939Z,99.16
2022-10-29T14:31:16.296Z,99.59
2022-10-29T14:33:49.753Z,99.57
2022-10-29T14:36:28.394Z,99.96
2022-10-29T14:39:28.819Z,100.00
2022-10-29T14:42:01.730Z,100.00
2022-10-29T14:44:33.166Z,100.00
2022-10-29T14:47:06.119Z,100.00
2022-10-29T14:49:41.231Z,100.00
2022-10-29T14:52:27.898Z,100.00
2022-10-29T14:55:00.092Z,100.00
2022-10-29T14:57:35.657Z,100.00
2022-10-29T15:00:07.624Z,100.00
2022-10-29T15:02:40.439Z,100.00
2022-10-29T15:05:30.110Z,100.00
2022-10-29T15:08:11.082Z,100.00
2022-10-29T15:10:53.962Z,100.00
2022-10-29T15:13:30.243Z,100.00
2022-10-29T15:16:19.546Z,100.00
2022-10-29T15:27:15.276Z,100.00
2022-10-29T15:29:49.638Z,100.00
2022-10-29T15:32:20.067Z,100.00
2022-10-29T15:34:58.304Z,100.00
2022-10-29T15:40:27.622Z,100.00
2022-10-29T15:45:57.678Z,100.00
2022-10-29T15:48:37.514Z,100.00
2022-10-29T15:51:07.908Z,100.00
2022-10-29T15:53:37.179Z,100.00
2022-10-29T15:56:08.344Z,100.00
2022-10-29T15:58:51.181Z,100.00
2022-10-29T16:01:20.415Z,100.00
2022-10-29T16:04:05.373Z,100.00
2022-10-29T16:06:39.115Z,100.00
2022-10-29T16:09:21.729Z,100.00
2022-10-29T16:11:53.298Z,100.00
2022-10-29T16:14:23.422Z,100.00
2022-10-29T16:19:55.992Z,100.00
2022-10-29T16:22:37.567Z,100.00
2022-10-29T16:25:07.339Z,100.00
2022-10-29T16:27:39.915Z,100.00
2022-10-29T16:30:08.601Z,100.00
2022-10-29T16:35:38.635Z,100.00
2022-10-29T16:43:49.620Z,100.00
2022-10-29T16:51:52.288Z,100.00
2022-10-29T16:54:19.902Z,100.00
2022-10-29T16:56:50.827Z,100.00
2022-10-29T16:59:19.423Z,100.00
2022-10-29T17:01:49.730Z,100.00
2022-10-29T17:07:04.313Z,100.00
2022-10-29T17:09:35.542Z,100.00
2022-10-29T17:14:56.761Z,100.00
2022-10-29T17:23:01.567Z,100.00
2022-10-29T17:25:44.809Z,100.00
2022-10-29T17:28:15.025Z,100.00
2022-10-29T17:33:31.834Z,100.00
2022-10-29T17:39:08.334Z,100.00
2022-10-29T17:41:44.107Z,100.00
2022-10-29T17:44:13.899Z,100.00
2022-10-29T17:49:42.055Z,100.00
2022-10-29T17:52:10.455Z,100.00
2022-10-29T17:54:40.980Z,100.00
2022-10-29T17:59:55.409Z,100.00
2022-10-29T18:02:23.655Z,100.00
2022-10-29T18:04:53.214Z,100.00
2022-10-29T18:07:23.700Z,100.00
2022-10-29T18:10:08.109Z,100.00
2022-10-29T18:12:39.901Z,100.00
2022-10-29T18:15:12.679Z,100.00
2022-10-29T18:20:51.262Z,100.00
2022-10-29T18:29:13.384Z,100.00
2022-10-29T18:34:39.114Z,100.00
2022-10-29T18:37:10.495Z,100.00
2022-10-29T18:40:02.608Z,100.00
2022-10-29T18:45:20.829Z,100.00
2022-10-29T18:47:50.465Z,100.00
2022-10-29T18:53:10.706Z,100.00
2022-10-29T18:55:58.781Z,100.00
2022-10-29T18:58:38.038Z,100.00
2022-10-29T19:01:14.897Z,100.00
2022-10-29T19:06:45.373Z,100.00
2022-10-29T19:09:16.788Z,100.00
2022-10-29T19:11:47.602Z,100.00
2022-10-29T19:17:02.574Z,100.00
2022-10-29T19:19:32.363Z,100.00
2022-10-29T19:22:00.436Z,100.00
2022-10-29T19:32:47.494Z,100.00
2022-10-29T19:35:15.577Z,100.00
2022-10-29T19:37:45.746Z,100.00
2022-10-29T19:40:14.226Z,100.00
2022-10-29T19:42:42.499Z,100.00
2022-10-29T19:45:11.482Z,100.00
2022-10-29T19:47:41.998Z,100.00
2022-10-29T19:50:10.324Z,100.00
2022-10-29T19:52:39.022Z,100.00
2022-10-29T19:55:08.336Z,100.00
2022-10-29T19:57:36.854Z,100.00
2022-10-29T20:00:05.630Z,100.00
2022-10-29T20:02:33.338Z,100.00
2022-10-29T20:05:02.083Z,100.00
2022-10-29T20:07:30.620Z,100.00
2022-10-29T20:10:00.120Z,100.00
2022-10-29T20:12:28.216Z,100.00
2022-10-29T20:14:56.727Z,100.00
2022-10-29T20:20:15.813Z,100.00
2022-10-29T20:22:46.399Z,100.00
2022-10-29T20:25:15.370Z,100.00
2022-10-29T20:27:45.565Z,100.00
2022-10-29T20:30:13.816Z,100.00
2022-10-29T20:32:42.025Z,100.00
2022-10-29T20:37:55.654Z,100.00
2022-10-29T20:40:23.541Z,100.00
2022-10-29T20:42:51.669Z,100.00
2022-10-29T20:48:05.688Z,100.00
2022-10-29T20:50:33.424Z,100.00
2022-10-29T20:53:01.928Z,100.00
2022-10-29T20:55:29.670Z,100.00
2022-10-29T21:00:43.332Z,100.00
2022-10-29T21:03:18.419Z,100.00
2022-10-29T21:08:34.756Z,100.00
2022-10-29T21:11:12.775Z,100.00
2022-10-29T21:13:40.611Z,100.00
2022-10-29T21:19:06.416Z,100.00
2022-10-29T21:21:33.885Z,100.00
2022-10-29T21:26:47.061Z,100.00
2022-10-29T21:29:14.746Z,100.00
2022-10-29T21:34:28.266Z,100.00
2022-10-29T21:36:56.071Z,100.00
2022-10-29T21:42:12.037Z,100.00
2022-10-29T21:44:39.683Z,100.00
2022-10-29T21:47:07.600Z,100.00
2022-10-29T21:49:34.993Z,100.00
2022-10-29T21:52:02.962Z,100.00
2022-10-29T21:54:30.926Z,100.00
2022-10-29T21:56:58.335Z,100.00
2022-10-29T21:59:25.953Z,100.00
2022-10-29T22:01:54.084Z,100.00
2022-10-29T22:07:07.646Z,100.00
2022-10-29T22:09:37.742Z,100.00
2022-10-29T22:12:08.381Z,100.00
2022-10-29T22:14:39.920Z,100.00
2022-10-29T22:17:07.941Z,100.00
2022-10-29T22:19:35.926Z,100.00
2022-10-29T22:22:04.142Z,100.00
2022-10-29T22:24:31.977Z,100.00
2022-10-29T22:27:00.447Z,100.00
2022-10-29T22:29:28.436Z,100.00
2022-10-29T22:31:56.378Z,100.00
2022-10-29T22:34:23.994Z,100.00
2022-10-29T22:36:52.514Z,100.00
2022-10-29T22:39:22.181Z,100.00
2022-10-29T22:44:35.065Z,100.00
2022-10-29T22:47:03.458Z,100.00
2022-10-29T22:49:32.609Z,100.00
2022-10-29T22:54:45.618Z,100.00
2022-10-29T22:57:13.187Z,100.00
2022-10-29T22:59:41.329Z,100.00
2022-10-29T23:02:11.224Z,100.00
2022-10-29T23:07:27.481Z,100.00
2022-10-29T23:09:56.551Z,100.00
2022-10-29T23:12:24.311Z,100.00
2022-10-29T23:14:54.876Z,100.00
2022-10-29T23:17:23.020Z,100.00
2022-10-29T23:19:56.273Z,100.00
2022-10-29T23:22:26.500Z,100.00
2022-10-29T23:24:57.033Z,100.00
2022-10-29T23:27:25.956Z,100.00
2022-10-29T23:32:39.849Z,100.00
2022-10-29T23:35:07.950Z,100.00
2022-10-29T23:37:36.081Z,100.00
2022-10-29T23:40:04.179Z,100.00
2022-10-29T23:42:32.573Z,100.00
2022-10-29T23:45:07.681Z,100.00
2022-10-29T23:50:25.921Z,100.00
2022-10-29T23:52:53.719Z,100.00
2022-10-29T23:55:21.598Z,100.00
2022-10-29T23:57:49.661Z,100.00
